Tosyumaru — JD3981 — position and weather

sailwx.info

Track history (hours):
 
Tides and Currents Weather Stations Pressure Air Temp Water Temp Dewpoint Dewpoint Depression Visibility Wind Speed Wind Dir Waves Ship Positions

Tosyumaru

Last reported at 2017-Oct-12 11:34 UTC. Time now 2017-Oct-19 23:30 UTC.
Position N 34°48' E 139°08'.

Length 64 m; draft 4.1 m.

Type: Tanker. MMSI: 431007803.

Date/timePositionNaut miles runAvg speedWind from/ knotsBaromVisibWave heightAir tempDewpointWater temp
2017-Oct-12 11:34N 34°48' E 139°08'111.5
2017-Oct-12 11:29N 34°49' E 139°09'711.1
2017-Oct-12 10:53N 34°55' E 139°13'1710.3
2017-Oct-12 09:11N 35°03' E 139°32'210.4
2017-Oct-12 08:57N 35°04' E 139°34'511.1
2017-Oct-12 08:30N 35°07' E 139°40'510.5
2017-Oct-12 08:00N 35°10' E 139°44'510.8
2017-Oct-12 07:31N 35°15' E 139°46'611.5
2017-Oct-12 07:00N 35°20' E 139°42'510.8
2017-Oct-12 06:30N 35°25' E 139°44'611.7
2017-Oct-12 06:00N 35°29' E 139°50'611.1
2017-Oct-12 05:27N 35°31' E 139°57'9 0.2
2017-Oct-10 15:09N 35°24' E 139°49'1 7.4
2017-Oct-10 15:00N 35°24' E 139°48'9 8.7
2017-Oct-10 14:00N 35°16' E 139°46'5 9.4
2017-Oct-10 13:30N 35°11' E 139°47'510.1
2017-Oct-10 13:00N 35°06' E 139°46'5 9.7
2017-Oct-10 12:30N 35°02' E 139°42'5 9.9
2017-Oct-10 12:00N 34°60' E 139°37'6 9.6
2017-Oct-10 11:22N 34°57' E 139°30'4 9.9
2017-Oct-10 11:00N 34°55' E 139°27'  
Track history (hours):
 
Tides and Currents Weather Stations Pressure Air Temp Water Temp Dewpoint Dewpoint Depression Visibility Wind Speed Wind Dir Waves Ship Positions

Tosyumaru

Last reported at 2017-Oct-12 11:34 UTC. Time now 2017-Oct-19 23:30 UTC.
Position N 34°48' E 139°08'.

Length 64 m; draft 4.1 m.

Type: Tanker. MMSI: 431007803.

Date/timePositionNaut miles runAvg speedWind from/ knotsBaromVisibWave heightAir tempDewpointWater temp
2017-Oct-12 11:34N 34°48' E 139°08'111.5
2017-Oct-12 11:29N 34°49' E 139°09'711.1
2017-Oct-12 10:53N 34°55' E 139°13'1710.3
2017-Oct-12 09:11N 35°03' E 139°32'210.4
2017-Oct-12 08:57N 35°04' E 139°34'511.1
2017-Oct-12 08:30N 35°07' E 139°40'510.5
2017-Oct-12 08:00N 35°10' E 139°44'510.8
2017-Oct-12 07:31N 35°15' E 139°46'611.5
2017-Oct-12 07:00N 35°20' E 139°42'510.8
2017-Oct-12 06:30N 35°25' E 139°44'611.7
2017-Oct-12 06:00N 35°29' E 139°50'611.1
2017-Oct-12 05:27N 35°31' E 139°57'9 0.2
2017-Oct-10 15:09N 35°24' E 139°49'1 7.4
2017-Oct-10 15:00N 35°24' E 139°48'9 8.7
2017-Oct-10 14:00N 35°16' E 139°46'5 9.4
2017-Oct-10 13:30N 35°11' E 139°47'510.1
2017-Oct-10 13:00N 35°06' E 139°46'5 9.7
2017-Oct-10 12:30N 35°02' E 139°42'5 9.9
2017-Oct-10 12:00N 34°60' E 139°37'6 9.6
2017-Oct-10 11:22N 34°57' E 139°30'4 9.9
2017-Oct-10 11:00N 34°55' E 139°27'  

Dump ship's entire track history